sensor_id;sensor_type;location;lat;lon;timestamp;P1;durP1;ratioP1;P2;durP2;ratioP2
28523;SDS011;15734;50.904;6.922;2023-10-08T00:02:17;8.68;;;3.70;;
28523;SDS011;15734;50.904;6.922;2023-10-08T00:04:47;10.13;;;4.25;;
28523;SDS011;15734;50.904;6.922;2023-10-08T00:07:15;14.35;;;4.28;;
28523;SDS011;15734;50.904;6.922;2023-10-08T00:09:46;7.97;;;3.78;;
28523;SDS011;15734;50.904;6.922;2023-10-08T00:12:16;18.55;;;4.20;;
28523;SDS011;15734;50.904;6.922;2023-10-08T00:14:46;12.15;;;4.30;;
28523;SDS011;15734;50.904;6.922;2023-10-08T00:17:14;11.82;;;3.80;;
28523;SDS011;15734;50.904;6.922;2023-10-08T00:19:43;9.88;;;4.18;;
28523;SDS011;15734;50.904;6.922;2023-10-08T00:22:10;15.63;;;3.67;;
28523;SDS011;15734;50.904;6.922;2023-10-08T00:24:39;10.13;;;4.05;;
28523;SDS011;15734;50.904;6.922;2023-10-08T00:27:07;9.38;;;3.83;;
28523;SDS011;15734;50.904;6.922;2023-10-08T00:29:33;8.68;;;4.10;;
28523;SDS011;15734;50.904;6.922;2023-10-08T00:31:59;14.45;;;4.13;;
28523;SDS011;15734;50.904;6.922;2023-10-08T00:34:24;10.73;;;4.25;;
28523;SDS011;15734;50.904;6.922;2023-10-08T00:36:52;10.20;;;4.68;;
28523;SDS011;15734;50.904;6.922;2023-10-08T00:39:17;10.38;;;3.80;;
28523;SDS011;15734;50.904;6.922;2023-10-08T00:41:50;17.08;;;4.38;;
28523;SDS011;15734;50.904;6.922;2023-10-08T00:44:23;14.23;;;4.37;;
28523;SDS011;15734;50.904;6.922;2023-10-08T00:46:49;13.20;;;3.90;;
28523;SDS011;15734;50.904;6.922;2023-10-08T00:49:16;10.02;;;3.83;;
28523;SDS011;15734;50.904;6.922;2023-10-08T00:52:12;14.55;;;4.03;;
28523;SDS011;15734;50.904;6.922;2023-10-08T00:54:39;8.45;;;3.90;;
28523;SDS011;15734;50.904;6.922;2023-10-08T00:57:25;11.23;;;3.78;;
28523;SDS011;15734;50.904;6.922;2023-10-08T00:59:53;11.85;;;4.20;;
28523;SDS011;15734;50.904;6.922;2023-10-08T01:02:20;6.57;;;3.30;;
28523;SDS011;15734;50.904;6.922;2023-10-08T01:04:52;10.15;;;4.22;;
28523;SDS011;15734;50.904;6.922;2023-10-08T01:07:21;11.90;;;4.88;;
28523;SDS011;15734;50.904;6.922;2023-10-08T01:09:49;12.52;;;4.30;;
28523;SDS011;15734;50.904;6.922;2023-10-08T01:12:20;13.13;;;4.40;;
28523;SDS011;15734;50.904;6.922;2023-10-08T01:14:53;12.10;;;4.65;;
28523;SDS011;15734;50.904;6.922;2023-10-08T01:17:22;11.98;;;4.32;;
28523;SDS011;15734;50.904;6.922;2023-10-08T01:19:52;11.70;;;3.78;;
28523;SDS011;15734;50.904;6.922;2023-10-08T01:22:45;9.75;;;3.53;;
28523;SDS011;15734;50.904;6.922;2023-10-08T01:25:11;10.77;;;4.25;;
28523;SDS011;15734;50.904;6.922;2023-10-08T01:30:11;10.68;;;3.42;;
28523;SDS011;15734;50.904;6.922;2023-10-08T01:32:42;13.95;;;4.07;;
28523;SDS011;15734;50.904;6.922;2023-10-08T01:35:08;16.00;;;4.50;;
28523;SDS011;15734;50.904;6.922;2023-10-08T01:37:48;11.25;;;4.63;;
28523;SDS011;15734;50.904;6.922;2023-10-08T01:40:17;16.35;;;4.18;;
28523;SDS011;15734;50.904;6.922;2023-10-08T01:42:43;9.40;;;3.63;;
28523;SDS011;15734;50.904;6.922;2023-10-08T01:45:09;12.10;;;4.32;;
28523;SDS011;15734;50.904;6.922;2023-10-08T01:47:38;10.63;;;4.28;;
28523;SDS011;15734;50.904;6.922;2023-10-08T01:50:03;15.00;;;5.35;;
28523;SDS011;15734;50.904;6.922;2023-10-08T01:52:46;10.40;;;4.20;;
28523;SDS011;15734;50.904;6.922;2023-10-08T01:55:16;11.38;;;3.83;;
28523;SDS011;15734;50.904;6.922;2023-10-08T01:57:44;15.25;;;4.10;;
28523;SDS011;15734;50.904;6.922;2023-10-08T02:00:14;11.10;;;3.85;;
28523;SDS011;15734;50.904;6.922;2023-10-08T02:02:44;13.38;;;4.40;;
28523;SDS011;15734;50.904;6.922;2023-10-08T02:05:15;9.30;;;3.70;;
28523;SDS011;15734;50.904;6.922;2023-10-08T02:07:43;12.32;;;4.97;;
28523;SDS011;15734;50.904;6.922;2023-10-08T02:10:13;18.80;;;4.53;;
28523;SDS011;15734;50.904;6.922;2023-10-08T02:12:41;13.98;;;3.88;;
28523;SDS011;15734;50.904;6.922;2023-10-08T02:15:07;15.40;;;4.03;;
28523;SDS011;15734;50.904;6.922;2023-10-08T02:17:33;13.35;;;4.38;;
28523;SDS011;15734;50.904;6.922;2023-10-08T02:19:59;11.75;;;4.65;;
28523;SDS011;15734;50.904;6.922;2023-10-08T02:22:25;9.07;;;4.13;;
28523;SDS011;15734;50.904;6.922;2023-10-08T02:24:51;14.07;;;3.90;;
28523;SDS011;15734;50.904;6.922;2023-10-08T02:27:18;15.82;;;5.38;;
28523;SDS011;15734;50.904;6.922;2023-10-08T02:29:44;10.13;;;4.03;;
28523;SDS011;15734;50.904;6.922;2023-10-08T02:32:09;16.80;;;4.53;;
28523;SDS011;15734;50.904;6.922;2023-10-08T02:34:35;10.10;;;4.50;;
28523;SDS011;15734;50.904;6.922;2023-10-08T02:37:01;12.30;;;4.13;;
28523;SDS011;15734;50.904;6.922;2023-10-08T02:39:28;15.63;;;3.97;;
28523;SDS011;15734;50.904;6.922;2023-10-08T02:41:55;17.88;;;4.53;;
28523;SDS011;15734;50.904;6.922;2023-10-08T02:44:24;10.57;;;3.72;;
28523;SDS011;15734;50.904;6.922;2023-10-08T02:46:50;9.68;;;4.22;;
28523;SDS011;15734;50.904;6.922;2023-10-08T02:49:17;17.88;;;4.10;;
28523;SDS011;15734;50.904;6.922;2023-10-08T02:51:47;9.15;;;4.68;;
28523;SDS011;15734;50.904;6.922;2023-10-08T02:54:16;9.80;;;3.80;;
28523;SDS011;15734;50.904;6.922;2023-10-08T02:56:51;12.13;;;4.22;;
28523;SDS011;15734;50.904;6.922;2023-10-08T02:59:20;7.53;;;3.63;;
28523;SDS011;15734;50.904;6.922;2023-10-08T03:01:47;11.88;;;3.95;;
28523;SDS011;15734;50.904;6.922;2023-10-08T03:04:14;14.23;;;4.38;;
28523;SDS011;15734;50.904;6.922;2023-10-08T03:06:47;11.18;;;4.60;;
28523;SDS011;15734;50.904;6.922;2023-10-08T03:09:17;10.52;;;4.00;;
28523;SDS011;15734;50.904;6.922;2023-10-08T03:11:48;13.70;;;4.95;;
28523;SDS011;15734;50.904;6.922;2023-10-08T03:14:18;11.75;;;4.50;;
28523;SDS011;15734;50.904;6.922;2023-10-08T03:16:54;11.88;;;4.30;;
28523;SDS011;15734;50.904;6.922;2023-10-08T03:19:32;13.07;;;4.88;;
28523;SDS011;15734;50.904;6.922;2023-10-08T03:21:58;15.43;;;4.68;;
28523;SDS011;15734;50.904;6.922;2023-10-08T03:24:23;12.77;;;4.68;;
28523;SDS011;15734;50.904;6.922;2023-10-08T03:26:56;10.43;;;4.38;;
28523;SDS011;15734;50.904;6.922;2023-10-08T03:29:31;13.52;;;4.22;;
28523;SDS011;15734;50.904;6.922;2023-10-08T03:32:07;12.07;;;4.32;;
28523;SDS011;15734;50.904;6.922;2023-10-08T03:34:38;22.00;;;5.53;;
28523;SDS011;15734;50.904;6.922;2023-10-08T03:37:07;14.32;;;4.63;;
28523;SDS011;15734;50.904;6.922;2023-10-08T03:39:33;10.00;;;4.32;;
28523;SDS011;15734;50.904;6.922;2023-10-08T03:42:25;13.88;;;4.13;;
28523;SDS011;15734;50.904;6.922;2023-10-08T03:44:54;13.30;;;4.57;;
28523;SDS011;15734;50.904;6.922;2023-10-08T03:47:21;11.05;;;4.03;;
28523;SDS011;15734;50.904;6.922;2023-10-08T03:49:51;12.35;;;4.60;;
28523;SDS011;15734;50.904;6.922;2023-10-08T03:52:17;16.35;;;4.18;;
28523;SDS011;15734;50.904;6.922;2023-10-08T03:54:48;9.40;;;4.03;;
28523;SDS011;15734;50.904;6.922;2023-10-08T03:57:20;11.65;;;4.53;;
28523;SDS011;15734;50.904;6.922;2023-10-08T03:59:54;8.37;;;3.60;;
28523;SDS011;15734;50.904;6.922;2023-10-08T04:02:23;11.40;;;4.55;;
28523;SDS011;15734;50.904;6.922;2023-10-08T04:05:05;12.95;;;4.45;;
28523;SDS011;15734;50.904;6.922;2023-10-08T04:07:43;15.25;;;5.47;;
28523;SDS011;15734;50.904;6.922;2023-10-08T04:10:24;8.57;;;4.03;;
28523;SDS011;15734;50.904;6.922;2023-10-08T04:13:14;10.35;;;4.28;;
28523;SDS011;15734;50.904;6.922;2023-10-08T04:15:41;10.18;;;4.47;;
28523;SDS011;15734;50.904;6.922;2023-10-08T04:18:11;12.38;;;5.50;;
28523;SDS011;15734;50.904;6.922;2023-10-08T04:20:38;10.25;;;4.05;;
28523;SDS011;15734;50.904;6.922;2023-10-08T04:23:04;13.90;;;4.65;;
28523;SDS011;15734;50.904;6.922;2023-10-08T04:25:38;17.25;;;4.60;;
28523;SDS011;15734;50.904;6.922;2023-10-08T04:28:04;7.82;;;3.78;;
28523;SDS011;15734;50.904;6.922;2023-10-08T04:30:34;12.55;;;4.65;;
28523;SDS011;15734;50.904;6.922;2023-10-08T04:33:01;11.05;;;4.65;;
28523;SDS011;15734;50.904;6.922;2023-10-08T04:35:38;10.48;;;4.60;;
28523;SDS011;15734;50.904;6.922;2023-10-08T04:38:16;18.05;;;4.65;;
28523;SDS011;15734;50.904;6.922;2023-10-08T04:40:44;16.75;;;4.95;;
28523;SDS011;15734;50.904;6.922;2023-10-08T04:43:23;12.98;;;4.68;;
28523;SDS011;15734;50.904;6.922;2023-10-08T04:45:56;15.88;;;4.57;;
28523;SDS011;15734;50.904;6.922;2023-10-08T04:48:22;14.13;;;4.57;;
28523;SDS011;15734;50.904;6.922;2023-10-08T04:50:49;16.35;;;4.35;;
28523;SDS011;15734;50.904;6.922;2023-10-08T04:53:23;11.63;;;4.38;;
28523;SDS011;15734;50.904;6.922;2023-10-08T04:56:02;14.18;;;4.15;;
28523;SDS011;15734;50.904;6.922;2023-10-08T04:58:38;12.13;;;5.28;;
28523;SDS011;15734;50.904;6.922;2023-10-08T05:01:11;14.45;;;5.32;;
28523;SDS011;15734;50.904;6.922;2023-10-08T05:03:54;13.20;;;4.07;;
28523;SDS011;15734;50.904;6.922;2023-10-08T05:06:23;13.15;;;4.22;;
28523;SDS011;15734;50.904;6.922;2023-10-08T05:09:08;13.75;;;4.70;;
28523;SDS011;15734;50.904;6.922;2023-10-08T05:11:37;12.07;;;4.22;;
28523;SDS011;15734;50.904;6.922;2023-10-08T05:14:31;15.98;;;4.50;;
28523;SDS011;15734;50.904;6.922;2023-10-08T05:16:57;12.35;;;5.00;;
28523;SDS011;15734;50.904;6.922;2023-10-08T05:19:39;12.40;;;4.55;;
28523;SDS011;15734;50.904;6.922;2023-10-08T05:22:09;10.93;;;4.72;;
28523;SDS011;15734;50.904;6.922;2023-10-08T05:24:55;12.90;;;4.70;;
28523;SDS011;15734;50.904;6.922;2023-10-08T05:27:54;16.23;;;4.80;;
28523;SDS011;15734;50.904;6.922;2023-10-08T05:33:06;12.45;;;4.35;;
28523;SDS011;15734;50.904;6.922;2023-10-08T05:35:48;11.20;;;4.93;;
28523;SDS011;15734;50.904;6.922;2023-10-08T05:38:15;15.57;;;4.70;;
28523;SDS011;15734;50.904;6.922;2023-10-08T05:40:49;11.48;;;4.57;;
28523;SDS011;15734;50.904;6.922;2023-10-08T05:43:22;16.92;;;4.20;;
28523;SDS011;15734;50.904;6.922;2023-10-08T05:46:04;11.50;;;4.95;;
28523;SDS011;15734;50.904;6.922;2023-10-08T05:48:52;14.30;;;4.40;;
28523;SDS011;15734;50.904;6.922;2023-10-08T05:51:32;16.92;;;4.45;;
28523;SDS011;15734;50.904;6.922;2023-10-08T05:54:14;10.38;;;4.15;;
28523;SDS011;15734;50.904;6.922;2023-10-08T05:56:54;13.35;;;5.10;;
28523;SDS011;15734;50.904;6.922;2023-10-08T06:02:28;13.02;;;4.95;;
28523;SDS011;15734;50.904;6.922;2023-10-08T06:10:33;16.27;;;5.15;;
28523;SDS011;15734;50.904;6.922;2023-10-08T06:13:02;20.98;;;6.00;;
28523;SDS011;15734;50.904;6.922;2023-10-08T06:15:44;11.15;;;4.97;;
28523;SDS011;15734;50.904;6.922;2023-10-08T06:18:24;14.00;;;4.60;;
28523;SDS011;15734;50.904;6.922;2023-10-08T06:20:54;10.43;;;4.45;;
28523;SDS011;15734;50.904;6.922;2023-10-08T06:23:21;16.60;;;4.65;;
28523;SDS011;15734;50.904;6.922;2023-10-08T06:25:48;12.50;;;4.40;;
28523;SDS011;15734;50.904;6.922;2023-10-08T06:28:43;12.13;;;4.72;;
28523;SDS011;15734;50.904;6.922;2023-10-08T06:31:09;12.95;;;5.63;;
28523;SDS011;15734;50.904;6.922;2023-10-08T06:33:41;17.05;;;5.10;;
28523;SDS011;15734;50.904;6.922;2023-10-08T06:36:08;14.90;;;4.85;;
28523;SDS011;15734;50.904;6.922;2023-10-08T06:38:38;12.77;;;4.82;;
28523;SDS011;15734;50.904;6.922;2023-10-08T06:41:05;10.15;;;5.38;;
28523;SDS011;15734;50.904;6.922;2023-10-08T06:43:47;15.27;;;5.45;;
28523;SDS011;15734;50.904;6.922;2023-10-08T06:46:14;12.73;;;5.13;;
28523;SDS011;15734;50.904;6.922;2023-10-08T06:48:47;12.77;;;5.25;;
28523;SDS011;15734;50.904;6.922;2023-10-08T06:51:15;14.65;;;4.95;;
28523;SDS011;15734;50.904;6.922;2023-10-08T06:53:47;18.58;;;4.57;;
28523;SDS011;15734;50.904;6.922;2023-10-08T06:56:13;10.73;;;4.63;;
28523;SDS011;15734;50.904;6.922;2023-10-08T06:58:41;11.05;;;4.07;;
28523;SDS011;15734;50.904;6.922;2023-10-08T07:01:13;12.95;;;4.97;;
28523;SDS011;15734;50.904;6.922;2023-10-08T07:03:46;11.07;;;4.80;;
28523;SDS011;15734;50.904;6.922;2023-10-08T07:06:15;16.27;;;4.57;;
28523;SDS011;15734;50.904;6.922;2023-10-08T07:08:42;20.58;;;4.97;;
28523;SDS011;15734;50.904;6.922;2023-10-08T07:11:11;14.98;;;5.18;;
28523;SDS011;15734;50.904;6.922;2023-10-08T07:13:37;11.43;;;4.95;;
28523;SDS011;15734;50.904;6.922;2023-10-08T07:16:05;13.70;;;5.15;;
28523;SDS011;15734;50.904;6.922;2023-10-08T07:18:36;11.82;;;4.63;;
28523;SDS011;15734;50.904;6.922;2023-10-08T07:21:02;17.50;;;5.68;;
28523;SDS011;15734;50.904;6.922;2023-10-08T07:23:29;14.60;;;5.40;;
28523;SDS011;15734;50.904;6.922;2023-10-08T07:26:02;17.42;;;4.43;;
28523;SDS011;15734;50.904;6.922;2023-10-08T07:31:05;13.38;;;4.78;;
28523;SDS011;15734;50.904;6.922;2023-10-08T07:33:40;11.30;;;4.50;;
28523;SDS011;15734;50.904;6.922;2023-10-08T07:36:08;12.95;;;4.65;;
28523;SDS011;15734;50.904;6.922;2023-10-08T07:38:39;13.07;;;5.10;;
28523;SDS011;15734;50.904;6.922;2023-10-08T07:41:11;17.65;;;5.40;;
28523;SDS011;15734;50.904;6.922;2023-10-08T07:43:39;15.13;;;5.15;;
28523;SDS011;15734;50.904;6.922;2023-10-08T07:46:09;13.77;;;4.45;;
28523;SDS011;15734;50.904;6.922;2023-10-08T07:48:35;14.60;;;4.97;;
28523;SDS011;15734;50.904;6.922;2023-10-08T07:51:01;16.10;;;7.00;;
28523;SDS011;15734;50.904;6.922;2023-10-08T07:53:27;10.73;;;4.68;;
28523;SDS011;15734;50.904;6.922;2023-10-08T07:56:05;12.20;;;4.28;;
28523;SDS011;15734;50.904;6.922;2023-10-08T07:58:32;14.02;;;4.65;;
28523;SDS011;15734;50.904;6.922;2023-10-08T08:01:02;12.98;;;5.30;;
28523;SDS011;15734;50.904;6.922;2023-10-08T08:03:35;21.20;;;5.43;;
28523;SDS011;15734;50.904;6.922;2023-10-08T08:06:06;14.48;;;4.60;;
28523;SDS011;15734;50.904;6.922;2023-10-08T08:08:34;14.23;;;5.00;;
28523;SDS011;15734;50.904;6.922;2023-10-08T08:11:00;16.52;;;5.22;;
28523;SDS011;15734;50.904;6.922;2023-10-08T08:13:37;14.98;;;5.10;;
28523;SDS011;15734;50.904;6.922;2023-10-08T08:16:04;14.90;;;5.22;;
28523;SDS011;15734;50.904;6.922;2023-10-08T08:18:42;17.20;;;5.68;;
28523;SDS011;15734;50.904;6.922;2023-10-08T08:21:11;23.35;;;5.80;;
28523;SDS011;15734;50.904;6.922;2023-10-08T08:23:45;19.40;;;5.50;;
28523;SDS011;15734;50.904;6.922;2023-10-08T08:26:20;18.45;;;5.57;;
28523;SDS011;15734;50.904;6.922;2023-10-08T08:29:04;21.80;;;5.40;;
28523;SDS011;15734;50.904;6.922;2023-10-08T08:31:34;18.98;;;6.00;;
28523;SDS011;15734;50.904;6.922;2023-10-08T08:34:03;13.02;;;5.18;;
28523;SDS011;15734;50.904;6.922;2023-10-08T08:36:33;17.25;;;5.03;;
28523;SDS011;15734;50.904;6.922;2023-10-08T08:38:59;16.83;;;5.80;;
28523;SDS011;15734;50.904;6.922;2023-10-08T08:41:24;13.82;;;5.20;;
28523;SDS011;15734;50.904;6.922;2023-10-08T08:43:50;19.90;;;5.53;;
28523;SDS011;15734;50.904;6.922;2023-10-08T08:46:32;16.58;;;5.20;;
28523;SDS011;15734;50.904;6.922;2023-10-08T08:49:01;17.00;;;5.13;;
28523;SDS011;15734;50.904;6.922;2023-10-08T08:51:32;14.55;;;6.32;;
28523;SDS011;15734;50.904;6.922;2023-10-08T08:54:00;15.93;;;5.60;;
28523;SDS011;15734;50.904;6.922;2023-10-08T08:56:31;16.15;;;6.28;;
28523;SDS011;15734;50.904;6.922;2023-10-08T08:58:59;12.38;;;5.20;;
28523;SDS011;15734;50.904;6.922;2023-10-08T09:01:25;21.77;;;5.80;;
28523;SDS011;15734;50.904;6.922;2023-10-08T09:03:52;24.17;;;6.88;;
28523;SDS011;15734;50.904;6.922;2023-10-08T09:06:26;16.30;;;5.43;;
28523;SDS011;15734;50.904;6.922;2023-10-08T09:08:52;20.50;;;6.75;;
28523;SDS011;15734;50.904;6.922;2023-10-08T09:11:20;21.60;;;5.63;;
28523;SDS011;15734;50.904;6.922;2023-10-08T09:13:46;15.27;;;5.50;;
28523;SDS011;15734;50.904;6.922;2023-10-08T09:16:15;19.05;;;6.15;;
28523;SDS011;15734;50.904;6.922;2023-10-08T09:18:45;18.02;;;6.28;;
28523;SDS011;15734;50.904;6.922;2023-10-08T09:21:16;17.23;;;5.90;;
28523;SDS011;15734;50.904;6.922;2023-10-08T09:23:50;17.20;;;6.65;;
28523;SDS011;15734;50.904;6.922;2023-10-08T09:26:17;22.83;;;6.72;;
28523;SDS011;15734;50.904;6.922;2023-10-08T09:28:45;19.25;;;6.15;;
28523;SDS011;15734;50.904;6.922;2023-10-08T09:31:14;22.45;;;6.72;;
28523;SDS011;15734;50.904;6.922;2023-10-08T09:33:42;28.13;;;7.88;;
28523;SDS011;15734;50.904;6.922;2023-10-08T09:36:17;28.50;;;7.22;;
28523;SDS011;15734;50.904;6.922;2023-10-08T09:38:45;25.20;;;7.28;;
28523;SDS011;15734;50.904;6.922;2023-10-08T09:41:13;29.63;;;7.75;;
28523;SDS011;15734;50.904;6.922;2023-10-08T09:43:39;36.28;;;7.68;;
28523;SDS011;15734;50.904;6.922;2023-10-08T09:46:18;36.30;;;8.55;;
28523;SDS011;15734;50.904;6.922;2023-10-08T09:48:50;38.72;;;7.57;;
28523;SDS011;15734;50.904;6.922;2023-10-08T09:51:17;25.70;;;7.75;;
28523;SDS011;15734;50.904;6.922;2023-10-08T09:56:35;29.92;;;8.32;;
28523;SDS011;15734;50.904;6.922;2023-10-08T09:59:02;24.15;;;7.38;;
28523;SDS011;15734;50.904;6.922;2023-10-08T10:01:28;25.20;;;7.45;;
28523;SDS011;15734;50.904;6.922;2023-10-08T10:03:56;31.23;;;7.50;;
28523;SDS011;15734;50.904;6.922;2023-10-08T10:06:26;29.48;;;7.53;;
28523;SDS011;15734;50.904;6.922;2023-10-08T10:08:53;24.98;;;7.30;;
28523;SDS011;15734;50.904;6.922;2023-10-08T10:11:25;25.98;;;8.07;;
28523;SDS011;15734;50.904;6.922;2023-10-08T10:13:57;26.13;;;7.30;;
28523;SDS011;15734;50.904;6.922;2023-10-08T10:16:27;30.02;;;7.43;;
28523;SDS011;15734;50.904;6.922;2023-10-08T10:18:56;21.88;;;7.78;;
28523;SDS011;15734;50.904;6.922;2023-10-08T10:23:55;29.23;;;8.37;;
28523;SDS011;15734;50.904;6.922;2023-10-08T10:26:28;31.38;;;9.00;;
28523;SDS011;15734;50.904;6.922;2023-10-08T10:31:46;24.77;;;7.95;;
28523;SDS011;15734;50.904;6.922;2023-10-08T10:34:15;24.27;;;8.52;;
28523;SDS011;15734;50.904;6.922;2023-10-08T10:36:56;23.95;;;7.57;;
28523;SDS011;15734;50.904;6.922;2023-10-08T10:39:34;24.80;;;7.40;;
28523;SDS011;15734;50.904;6.922;2023-10-08T10:42:05;34.03;;;9.63;;
28523;SDS011;15734;50.904;6.922;2023-10-08T10:44:43;30.48;;;7.95;;
28523;SDS011;15734;50.904;6.922;2023-10-08T10:47:09;29.40;;;9.52;;
28523;SDS011;15734;50.904;6.922;2023-10-08T10:49:41;29.15;;;8.98;;
28523;SDS011;15734;50.904;6.922;2023-10-08T10:52:17;22.58;;;8.07;;
28523;SDS011;15734;50.904;6.922;2023-10-08T10:54:54;36.88;;;9.63;;
28523;SDS011;15734;50.904;6.922;2023-10-08T10:57:31;28.85;;;9.15;;
28523;SDS011;15734;50.904;6.922;2023-10-08T11:00:06;28.38;;;7.95;;
28523;SDS011;15734;50.904;6.922;2023-10-08T11:02:51;31.70;;;9.55;;
28523;SDS011;15734;50.904;6.922;2023-10-08T11:05:21;22.10;;;8.65;;
28523;SDS011;15734;50.904;6.922;2023-10-08T11:07:53;24.98;;;8.20;;
28523;SDS011;15734;50.904;6.922;2023-10-08T11:10:23;23.30;;;8.23;;
28523;SDS011;15734;50.904;6.922;2023-10-08T11:12:49;33.25;;;9.35;;
28523;SDS011;15734;50.904;6.922;2023-10-08T11:15:18;32.28;;;9.93;;
28523;SDS011;15734;50.904;6.922;2023-10-08T11:17:44;28.17;;;9.05;;
28523;SDS011;15734;50.904;6.922;2023-10-08T11:20:26;33.78;;;10.40;;
28523;SDS011;15734;50.904;6.922;2023-10-08T11:22:52;31.25;;;10.07;;
28523;SDS011;15734;50.904;6.922;2023-10-08T11:25:41;29.83;;;10.23;;
28523;SDS011;15734;50.904;6.922;2023-10-08T11:28:18;25.30;;;10.30;;
28523;SDS011;15734;50.904;6.922;2023-10-08T11:30:44;32.17;;;10.25;;
28523;SDS011;15734;50.904;6.922;2023-10-08T11:33:12;28.77;;;13.27;;
28523;SDS011;15734;50.904;6.922;2023-10-08T11:35:54;26.45;;;11.32;;
28523;SDS011;15734;50.904;6.922;2023-10-08T11:38:24;40.13;;;12.70;;
28523;SDS011;15734;50.904;6.922;2023-10-08T11:40:49;35.03;;;12.90;;
28523;SDS011;15734;50.904;6.922;2023-10-08T11:43:21;33.15;;;13.10;;
28523;SDS011;15734;50.904;6.922;2023-10-08T11:45:49;34.28;;;12.23;;
28523;SDS011;15734;50.904;6.922;2023-10-08T11:48:16;36.53;;;10.60;;
28523;SDS011;15734;50.904;6.922;2023-10-08T11:50:53;27.70;;;11.32;;
28523;SDS011;15734;50.904;6.922;2023-10-08T11:53:22;47.95;;;14.73;;
28523;SDS011;15734;50.904;6.922;2023-10-08T11:55:49;37.40;;;11.82;;
28523;SDS011;15734;50.904;6.922;2023-10-08T11:58:19;33.35;;;11.85;;
28523;SDS011;15734;50.904;6.922;2023-10-08T12:00:45;32.13;;;12.70;;
28523;SDS011;15734;50.904;6.922;2023-10-08T12:03:14;34.08;;;13.38;;
28523;SDS011;15734;50.904;6.922;2023-10-08T12:05:43;34.28;;;13.02;;
28523;SDS011;15734;50.904;6.922;2023-10-08T12:08:12;35.95;;;13.45;;
28523;SDS011;15734;50.904;6.922;2023-10-08T12:10:41;36.67;;;13.20;;
28523;SDS011;15734;50.904;6.922;2023-10-08T12:13:08;28.85;;;12.95;;
28523;SDS011;15734;50.904;6.922;2023-10-08T12:15:35;36.67;;;14.93;;
28523;SDS011;15734;50.904;6.922;2023-10-08T12:18:03;36.38;;;13.27;;
28523;SDS011;15734;50.904;6.922;2023-10-08T12:20:36;32.63;;;13.38;;
28523;SDS011;15734;50.904;6.922;2023-10-08T12:23:06;36.53;;;13.30;;
28523;SDS011;15734;50.904;6.922;2023-10-08T12:25:35;36.08;;;13.60;;
28523;SDS011;15734;50.904;6.922;2023-10-08T12:28:02;38.28;;;12.55;;
28523;SDS011;15734;50.904;6.922;2023-10-08T12:30:29;38.08;;;13.35;;
28523;SDS011;15734;50.904;6.922;2023-10-08T12:32:59;30.50;;;12.68;;
28523;SDS011;15734;50.904;6.922;2023-10-08T12:35:25;32.03;;;12.32;;
28523;SDS011;15734;50.904;6.922;2023-10-08T12:37:51;28.38;;;12.32;;
28523;SDS011;15734;50.904;6.922;2023-10-08T12:40:18;31.08;;;13.40;;
28523;SDS011;15734;50.904;6.922;2023-10-08T12:42:50;35.60;;;12.95;;
28523;SDS011;15734;50.904;6.922;2023-10-08T12:45:16;39.35;;;13.77;;
28523;SDS011;15734;50.904;6.922;2023-10-08T12:47:46;31.38;;;11.88;;
28523;SDS011;15734;50.904;6.922;2023-10-08T12:50:17;33.63;;;13.13;;
28523;SDS011;15734;50.904;6.922;2023-10-08T12:52:54;33.58;;;11.40;;
28523;SDS011;15734;50.904;6.922;2023-10-08T12:55:20;33.08;;;11.48;;
28523;SDS011;15734;50.904;6.922;2023-10-08T12:57:52;30.77;;;11.90;;
28523;SDS011;15734;50.904;6.922;2023-10-08T13:00:30;28.65;;;12.52;;
28523;SDS011;15734;50.904;6.922;2023-10-08T13:02:59;31.60;;;13.55;;
28523;SDS011;15734;50.904;6.922;2023-10-08T13:05:26;29.67;;;12.02;;
28523;SDS011;15734;50.904;6.922;2023-10-08T13:07:56;38.38;;;13.60;;
28523;SDS011;15734;50.904;6.922;2023-10-08T13:10:25;33.75;;;12.55;;
28523;SDS011;15734;50.904;6.922;2023-10-08T13:12:51;40.10;;;12.40;;
28523;SDS011;15734;50.904;6.922;2023-10-08T13:15:17;29.98;;;13.18;;
28523;SDS011;15734;50.904;6.922;2023-10-08T13:17:42;29.95;;;12.65;;
28523;SDS011;15734;50.904;6.922;2023-10-08T13:20:10;33.70;;;13.05;;
28523;SDS011;15734;50.904;6.922;2023-10-08T13:22:39;31.42;;;11.80;;
28523;SDS011;15734;50.904;6.922;2023-10-08T13:25:05;25.17;;;11.13;;
28523;SDS011;15734;50.904;6.922;2023-10-08T13:27:31;33.30;;;11.23;;
28523;SDS011;15734;50.904;6.922;2023-10-08T13:29:57;28.58;;;12.95;;
28523;SDS011;15734;50.904;6.922;2023-10-08T13:32:23;34.20;;;11.98;;
28523;SDS011;15734;50.904;6.922;2023-10-08T13:34:49;39.35;;;12.00;;
28523;SDS011;15734;50.904;6.922;2023-10-08T13:37:15;28.30;;;12.32;;
28523;SDS011;15734;50.904;6.922;2023-10-08T13:39:41;28.58;;;12.48;;
28523;SDS011;15734;50.904;6.922;2023-10-08T13:42:06;34.90;;;12.00;;
28523;SDS011;15734;50.904;6.922;2023-10-08T13:44:32;36.95;;;12.55;;
28523;SDS011;15734;50.904;6.922;2023-10-08T13:47:00;33.03;;;11.77;;
28523;SDS011;15734;50.904;6.922;2023-10-08T13:49:30;33.85;;;11.65;;
28523;SDS011;15734;50.904;6.922;2023-10-08T13:51:57;26.02;;;12.43;;
28523;SDS011;15734;50.904;6.922;2023-10-08T13:54:22;30.50;;;12.68;;
28523;SDS011;15734;50.904;6.922;2023-10-08T13:56:53;27.23;;;11.40;;
28523;SDS011;15734;50.904;6.922;2023-10-08T13:59:20;35.47;;;11.98;;
28523;SDS011;15734;50.904;6.922;2023-10-08T14:01:49;34.17;;;12.23;;
28523;SDS011;15734;50.904;6.922;2023-10-08T14:04:19;32.35;;;12.68;;
28523;SDS011;15734;50.904;6.922;2023-10-08T14:06:48;26.00;;;10.48;;
28523;SDS011;15734;50.904;6.922;2023-10-08T14:09:17;36.55;;;12.98;;
28523;SDS011;15734;50.904;6.922;2023-10-08T14:11:47;41.33;;;13.32;;
28523;SDS011;15734;50.904;6.922;2023-10-08T14:14:15;37.25;;;12.90;;
28523;SDS011;15734;50.904;6.922;2023-10-08T14:16:42;34.35;;;11.60;;
28523;SDS011;15734;50.904;6.922;2023-10-08T14:19:11;34.80;;;11.35;;
28523;SDS011;15734;50.904;6.922;2023-10-08T14:21:41;26.10;;;11.13;;
28523;SDS011;15734;50.904;6.922;2023-10-08T14:24:25;32.63;;;12.05;;
28523;SDS011;15734;50.904;6.922;2023-10-08T14:26:52;38.15;;;11.48;;
28523;SDS011;15734;50.904;6.922;2023-10-08T14:29:21;29.83;;;11.45;;
28523;SDS011;15734;50.904;6.922;2023-10-08T14:31:49;27.80;;;12.23;;
28523;SDS011;15734;50.904;6.922;2023-10-08T14:34:18;26.88;;;11.27;;
28523;SDS011;15734;50.904;6.922;2023-10-08T14:36:47;31.67;;;10.98;;
28523;SDS011;15734;50.904;6.922;2023-10-08T14:39:33;26.00;;;11.40;;
28523;SDS011;15734;50.904;6.922;2023-10-08T14:42:18;32.20;;;11.15;;
28523;SDS011;15734;50.904;6.922;2023-10-08T14:45:03;34.15;;;11.10;;
28523;SDS011;15734;50.904;6.922;2023-10-08T14:47:36;30.42;;;11.32;;
28523;SDS011;15734;50.904;6.922;2023-10-08T14:50:06;37.17;;;12.80;;
28523;SDS011;15734;50.904;6.922;2023-10-08T14:52:41;28.85;;;12.00;;
28523;SDS011;15734;50.904;6.922;2023-10-08T14:55:09;29.92;;;10.88;;
28523;SDS011;15734;50.904;6.922;2023-10-08T14:57:36;28.67;;;11.70;;
28523;SDS011;15734;50.904;6.922;2023-10-08T15:00:02;28.98;;;11.15;;
28523;SDS011;15734;50.904;6.922;2023-10-08T15:02:30;39.38;;;12.45;;
28523;SDS011;15734;50.904;6.922;2023-10-08T15:04:56;29.58;;;12.50;;
28523;SDS011;15734;50.904;6.922;2023-10-08T15:07:22;25.48;;;10.88;;
28523;SDS011;15734;50.904;6.922;2023-10-08T15:09:48;27.95;;;12.30;;
28523;SDS011;15734;50.904;6.922;2023-10-08T15:12:14;30.10;;;11.90;;
28523;SDS011;15734;50.904;6.922;2023-10-08T15:14:42;32.42;;;12.77;;
28523;SDS011;15734;50.904;6.922;2023-10-08T15:17:07;36.63;;;13.35;;